createdAt,value
2023-01-13T00:01:23.911Z,9.58
2023-01-13T00:03:55.054Z,9.58
2023-01-13T00:06:34.849Z,9.53
2023-01-13T00:09:01.741Z,9.57
2023-01-13T00:11:28.356Z,9.59
2023-01-13T00:13:54.936Z,9.52
2023-01-13T00:16:21.820Z,9.56
2023-01-13T00:18:51.226Z,9.62
2023-01-13T00:21:20.324Z,9.62
2023-01-13T00:23:47.397Z,9.58
2023-01-13T00:26:17.490Z,9.54
2023-01-13T00:28:44.212Z,9.51
2023-01-13T00:31:13.672Z,9.49
2023-01-13T00:33:40.880Z,9.53
2023-01-13T00:36:09.552Z,9.51
2023-01-13T00:38:36.643Z,9.55
2023-01-13T00:41:10.537Z,9.55
2023-01-13T00:43:37.656Z,9.53
2023-01-13T00:46:06.765Z,9.52
2023-01-13T00:48:34.040Z,9.53
2023-01-13T00:51:03.673Z,9.53
2023-01-13T00:53:34.563Z,9.48
2023-01-13T00:56:10.087Z,9.47
2023-01-13T00:58:37.130Z,9.48
2023-01-13T01:01:07.091Z,9.46
2023-01-13T01:03:42.383Z,9.42
2023-01-13T01:06:21.321Z,9.10
2023-01-13T01:08:47.967Z,9.25
2023-01-13T01:11:20.859Z,9.44
2023-01-13T01:13:47.871Z,9.46
2023-01-13T01:16:17.363Z,9.37
2023-01-13T01:18:49.611Z,9.47
2023-01-13T01:21:17.787Z,9.48
2023-01-13T01:23:45.240Z,9.34
2023-01-13T01:26:20.089Z,9.48
2023-01-13T01:28:47.670Z,9.47
2023-01-13T01:31:15.287Z,9.50
2023-01-13T01:33:44.088Z,9.48
2023-01-13T01:36:12.490Z,9.47
2023-01-13T01:38:39.121Z,9.47
2023-01-13T01:41:06.214Z,9.44
2023-01-13T01:44:00.012Z,9.52
2023-01-13T01:46:29.078Z,9.40
2023-01-13T01:49:02.348Z,9.43
2023-01-13T01:51:32.974Z,9.48
2023-01-13T01:54:02.931Z,9.47
2023-01-13T01:56:30.322Z,9.56
2023-01-13T01:58:56.863Z,9.56
2023-01-13T02:01:25.315Z,9.56
2023-01-13T02:04:05.502Z,9.48
2023-01-13T02:06:32.096Z,9.62
2023-01-13T02:08:59.852Z,9.62
2023-01-13T02:11:52.794Z,9.64
2023-01-13T02:14:22.732Z,9.50
2023-01-13T02:16:54.921Z,9.62
2023-01-13T02:19:47.176Z,9.61
2023-01-13T02:22:25.843Z,9.59
2023-01-13T02:25:18.089Z,9.59
2023-01-13T02:28:01.312Z,9.61
2023-01-13T02:31:02.868Z,9.46
2023-01-13T02:33:46.004Z,9.58
2023-01-13T02:36:24.897Z,9.52
2023-01-13T02:39:01.201Z,9.50
2023-01-13T02:41:55.399Z,9.35
2023-01-13T02:44:26.049Z,9.39
2023-01-13T02:47:04.166Z,9.41
2023-01-13T02:49:36.208Z,9.46
2023-01-13T02:52:14.160Z,9.28
2023-01-13T02:54:45.608Z,9.49
2023-01-13T02:57:14.880Z,9.42
2023-01-13T02:59:42.690Z,9.34
2023-01-13T03:02:13.193Z,9.40
2023-01-13T03:05:03.494Z,9.42
2023-01-13T03:07:55.604Z,9.49
2023-01-13T03:10:34.696Z,9.54
2023-01-13T03:13:31.971Z,9.65
2023-01-13T03:16:25.340Z,9.41
2023-01-13T03:19:03.824Z,9.72
2023-01-13T03:21:48.444Z,9.62
2023-01-13T03:24:25.759Z,9.71
2023-01-13T03:26:54.969Z,9.67
2023-01-13T03:29:41.261Z,9.63
2023-01-13T03:32:16.269Z,9.65
2023-01-13T03:34:51.264Z,9.62
2023-01-13T03:37:22.204Z,9.59
2023-01-13T03:39:54.365Z,9.52
2023-01-13T03:42:24.919Z,9.56
2023-01-13T03:45:03.256Z,9.59
2023-01-13T03:47:35.374Z,9.64
2023-01-13T03:50:27.491Z,9.68
2023-01-13T03:53:00.690Z,9.68
2023-01-13T03:55:34.062Z,9.74
2023-01-13T03:58:10.434Z,9.75
2023-01-13T04:00:50.749Z,9.67
2023-01-13T04:03:44.204Z,9.74
2023-01-13T04:06:26.753Z,9.73
2023-01-13T04:08:58.397Z,9.75
2023-01-13T04:11:32.912Z,9.73
2023-01-13T04:14:03.393Z,9.56
2023-01-13T04:16:29.955Z,9.74
2023-01-13T04:18:56.411Z,9.59
2023-01-13T04:21:22.806Z,9.69
2023-01-13T04:23:51.393Z,9.71
2023-01-13T04:26:19.684Z,9.74
2023-01-13T04:28:46.729Z,9.75
2023-01-13T04:31:13.241Z,9.78
2023-01-13T04:33:39.812Z,9.78
2023-01-13T04:36:06.643Z,9.74
2023-01-13T04:38:33.207Z,9.52
2023-01-13T04:40:59.622Z,9.85
2023-01-13T04:43:26.228Z,9.83
2023-01-13T04:45:55.207Z,9.84
2023-01-13T04:48:21.689Z,9.82
2023-01-13T04:50:48.103Z,9.85
2023-01-13T04:53:14.529Z,9.90
2023-01-13T04:55:40.977Z,9.88
2023-01-13T04:58:09.446Z,9.88
2023-01-13T05:00:36.987Z,9.92
2023-01-13T05:03:04.022Z,9.89
2023-01-13T05:05:30.853Z,9.76
2023-01-13T05:07:58.282Z,9.52
2023-01-13T05:10:25.728Z,9.59
2023-01-13T05:13:11.594Z,9.40
2023-01-13T05:15:59.169Z,9.26
2023-01-13T05:18:26.269Z,9.02
2023-01-13T05:20:52.680Z,8.96
2023-01-13T05:23:39.060Z,8.81
2023-01-13T05:26:05.668Z,8.84
2023-01-13T05:28:33.917Z,8.60
2023-01-13T05:31:01.674Z,8.62
2023-01-13T05:33:28.406Z,8.47
2023-01-13T05:35:54.875Z,8.37
2023-01-13T05:38:21.296Z,8.33
2023-01-13T05:41:06.065Z,8.19
2023-01-13T05:43:34.950Z,8.15
2023-01-13T05:46:08.043Z,8.17
2023-01-13T05:48:40.161Z,8.02
2023-01-13T05:51:09.267Z,8.05
2023-01-13T05:53:36.915Z,7.93
2023-01-13T05:56:05.238Z,8.03
2023-01-13T05:58:31.884Z,7.83
2023-01-13T06:01:04.573Z,7.78
2023-01-13T06:03:31.253Z,7.66
2023-01-13T06:06:01.422Z,7.64
2023-01-13T06:08:28.223Z,7.57
2023-01-13T06:10:56.084Z,7.60
2023-01-13T06:13:22.992Z,7.62
2023-01-13T06:15:49.411Z,7.62
2023-01-13T06:18:15.851Z,7.54
2023-01-13T06:20:42.221Z,7.52
2023-01-13T06:23:11.909Z,7.31
2023-01-13T06:25:43.216Z,7.02
2023-01-13T06:28:10.822Z,7.05
2023-01-13T06:30:49.794Z,6.92
2023-01-13T06:33:22.321Z,6.89
2023-01-13T06:35:58.361Z,6.73
2023-01-13T06:38:29.003Z,6.91
2023-01-13T06:40:55.498Z,6.76
2023-01-13T06:43:22.059Z,6.81
2023-01-13T06:45:52.411Z,6.86
2023-01-13T06:48:21.732Z,6.93
2023-01-13T06:50:48.092Z,6.84
2023-01-13T06:53:14.502Z,6.81
2023-01-13T06:55:41.259Z,6.75
2023-01-13T06:58:07.716Z,6.70
2023-01-13T07:00:37.442Z,6.74
2023-01-13T07:03:21.855Z,6.62
2023-01-13T07:05:53.547Z,6.82
2023-01-13T07:08:20.822Z,6.67
2023-01-13T07:10:47.255Z,6.59
2023-01-13T07:13:32.366Z,6.63
2023-01-13T07:16:01.581Z,6.42
2023-01-13T07:18:31.541Z,6.45
2023-01-13T07:21:04.044Z,6.55
2023-01-13T07:23:32.981Z,6.50
2023-01-13T07:26:00.346Z,6.52
2023-01-13T07:28:28.506Z,6.48
2023-01-13T07:30:55.044Z,6.44
2023-01-13T07:33:21.871Z,6.38
2023-01-13T07:35:49.141Z,6.46
2023-01-13T07:38:16.353Z,6.36
2023-01-13T07:40:47.927Z,6.30
2023-01-13T07:43:32.665Z,6.28
2023-01-13T07:46:04.843Z,6.38
2023-01-13T07:48:33.500Z,6.27
2023-01-13T07:51:08.700Z,6.42
2023-01-13T07:53:35.309Z,6.46
2023-01-13T07:56:03.482Z,6.37
2023-01-13T07:58:30.008Z,6.38
2023-01-13T08:00:56.938Z,6.52
2023-01-13T08:03:23.937Z,6.48
2023-01-13T08:05:51.083Z,6.48
2023-01-13T08:08:18.284Z,6.43
2023-01-13T08:10:45.033Z,6.35
2023-01-13T08:13:18.188Z,6.36
2023-01-13T08:15:47.038Z,6.36
2023-01-13T08:18:13.959Z,6.34
2023-01-13T08:20:40.793Z,6.31
2023-01-13T08:23:07.627Z,6.44
2023-01-13T08:25:34.362Z,6.42
2023-01-13T08:28:00.840Z,6.41
2023-01-13T08:30:28.329Z,6.30
2023-01-13T08:32:55.004Z,6.27
2023-01-13T08:35:22.352Z,6.37
2023-01-13T08:37:50.148Z,6.37
2023-01-13T08:40:18.040Z,6.33
2023-01-13T08:42:45.915Z,6.69
2023-01-13T08:45:14.232Z,6.94
2023-01-13T08:47:40.757Z,7.59
2023-01-13T08:50:08.050Z,7.86
2023-01-13T08:52:34.650Z,8.20
2023-01-13T08:55:01.179Z,8.42
2023-01-13T08:57:27.728Z,8.58
2023-01-13T08:59:54.320Z,8.66
2023-01-13T09:02:26.184Z,8.35
2023-01-13T09:04:53.232Z,8.65
2023-01-13T09:07:20.353Z,9.01
2023-01-13T09:09:46.849Z,9.47
2023-01-13T09:12:33.689Z,9.57
2023-01-13T09:15:00.981Z,9.97
2023-01-13T09:17:27.983Z,10.27
2023-01-13T09:19:54.709Z,10.11
2023-01-13T09:22:21.837Z,9.41
2023-01-13T09:24:48.269Z,8.71
2023-01-13T09:27:15.561Z,8.78
2023-01-13T09:29:42.351Z,8.40
2023-01-13T09:32:12.684Z,8.69
2023-01-13T09:35:06.479Z,8.85
2023-01-13T09:37:36.811Z,8.95
2023-01-13T09:40:07.669Z,8.67
2023-01-13T09:43:00.776Z,8.40
2023-01-13T09:45:42.644Z,8.44
2023-01-13T09:48:30.057Z,8.67
2023-01-13T09:51:20.913Z,8.33
2023-01-13T09:53:55.897Z,8.37
2023-01-13T09:56:25.901Z,9.13
2023-01-13T09:58:52.475Z,8.89
2023-01-13T10:01:37.860Z,8.82
2023-01-13T10:04:12.061Z,8.52
2023-01-13T10:06:44.158Z,8.30
2023-01-13T10:09:35.961Z,8.49
2023-01-13T10:12:21.725Z,8.42
2023-01-13T10:14:54.320Z,8.36
2023-01-13T10:17:52.096Z,8.47
2023-01-13T10:20:29.828Z,8.35
2023-01-13T10:23:10.246Z,8.25
2023-01-13T10:25:55.397Z,8.12
2023-01-13T10:28:23.951Z,8.67
2023-01-13T10:30:50.806Z,8.18
2023-01-13T10:33:21.333Z,8.35
2023-01-13T10:36:02.407Z,8.31
2023-01-13T10:38:46.845Z,8.30
2023-01-13T10:41:16.330Z,8.26
2023-01-13T10:43:44.295Z,8.40
2023-01-13T10:46:15.978Z,8.26
2023-01-13T10:48:51.729Z,8.75
2023-01-13T10:51:22.096Z,8.62
2023-01-13T10:53:51.696Z,8.62
2023-01-13T10:56:21.120Z,8.36
2023-01-13T10:58:47.617Z,8.28
2023-01-13T11:01:21.831Z,8.20
2023-01-13T11:03:48.405Z,8.29
2023-01-13T11:06:29.798Z,8.37
2023-01-13T11:09:03.110Z,8.21
2023-01-13T11:11:35.187Z,8.28
2023-01-13T11:14:23.686Z,8.15
2023-01-13T11:16:55.637Z,8.31
2023-01-13T11:19:27.664Z,8.19
2023-01-13T11:22:17.714Z,8.25
2023-01-13T11:24:51.198Z,8.16
2023-01-13T11:27:35.939Z,8.20
2023-01-13T11:30:27.475Z,8.13
2023-01-13T11:33:04.742Z,8.46
2023-01-13T11:35:34.906Z,8.36
2023-01-13T11:38:11.094Z,8.85
2023-01-13T11:40:42.822Z,8.92
2023-01-13T11:43:32.699Z,8.95
2023-01-13T11:46:00.954Z,9.37
2023-01-13T11:48:31.070Z,9.93
2023-01-13T11:51:07.954Z,9.38
2023-01-13T11:53:46.116Z,9.30
2023-01-13T11:56:54.790Z,9.41
2023-01-13T11:59:58.559Z,9.78
2023-01-13T12:02:58.032Z,9.70
2023-01-13T12:05:42.640Z,9.44
2023-01-13T12:08:43.266Z,9.25
2023-01-13T12:11:18.836Z,9.03
2023-01-13T12:13:52.254Z,9.21
2023-01-13T12:16:32.444Z,9.09
2023-01-13T12:19:29.652Z,9.24
2023-01-13T12:22:11.447Z,9.31
2023-01-13T12:25:02.428Z,9.33
2023-01-13T12:27:41.371Z,9.18
2023-01-13T12:30:23.060Z,8.95
2023-01-13T12:32:51.345Z,9.10
2023-01-13T12:35:37.942Z,8.88
2023-01-13T12:38:07.135Z,9.10
2023-01-13T12:40:39.443Z,9.06
2023-01-13T12:43:33.592Z,9.22
2023-01-13T12:46:18.706Z,9.10
2023-01-13T12:48:53.062Z,9.08
2023-01-13T12:51:29.815Z,9.04
2023-01-13T12:53:56.620Z,9.07
2023-01-13T12:56:30.769Z,9.08
2023-01-13T12:59:19.430Z,9.03
2023-01-13T13:01:48.647Z,9.01
2023-01-13T13:04:37.972Z,9.06
2023-01-13T13:07:10.267Z,8.99
2023-01-13T13:09:43.927Z,8.98
2023-01-13T13:12:51.000Z,8.89
2023-01-13T13:15:26.791Z,8.89
2023-01-13T13:17:59.669Z,8.94
2023-01-13T13:21:04.020Z,9.02
2023-01-13T13:23:38.149Z,8.95
2023-01-13T13:26:15.731Z,8.96
2023-01-13T13:28:47.527Z,9.08
2023-01-13T13:31:32.546Z,8.71
2023-01-13T13:34:05.089Z,9.00
2023-01-13T13:36:43.671Z,9.00
2023-01-13T13:39:40.277Z,9.33
2023-01-13T13:42:46.931Z,9.34
2023-01-13T13:45:40.080Z,9.11
2023-01-13T13:48:27.220Z,9.18
2023-01-13T13:51:03.680Z,8.92
2023-01-13T13:53:34.236Z,9.00
2023-01-13T13:56:03.360Z,9.33
2023-01-13T13:58:34.051Z,9.51
2023-01-13T14:01:00.888Z,9.88
2023-01-13T14:03:34.179Z,9.43
2023-01-13T14:06:04.116Z,9.06
2023-01-13T14:08:34.116Z,9.26
2023-01-13T14:11:00.498Z,9.01
2023-01-13T14:13:31.506Z,9.17
2023-01-13T14:16:03.982Z,9.06
2023-01-13T14:18:42.364Z,8.85
2023-01-13T14:21:27.538Z,8.83
2023-01-13T14:24:01.269Z,8.79
2023-01-13T14:26:28.987Z,8.78
2023-01-13T14:28:57.623Z,8.66
2023-01-13T14:31:24.716Z,8.49
2023-01-13T14:33:57.519Z,8.49
2023-01-13T14:36:49.516Z,8.40
2023-01-13T14:39:16.779Z,8.37
2023-01-13T14:41:43.091Z,8.33
2023-01-13T14:44:26.996Z,8.28
2023-01-13T14:46:56.879Z,8.26
2023-01-13T14:49:39.302Z,8.19
2023-01-13T14:52:20.968Z,8.18
2023-01-13T14:55:14.850Z,8.02
2023-01-13T14:57:41.736Z,7.97
2023-01-13T15:00:13.980Z,7.94
2023-01-13T15:02:43.333Z,7.89
2023-01-13T15:05:19.067Z,7.88
2023-01-13T15:07:50.730Z,7.85
2023-01-13T15:10:19.592Z,7.88
2023-01-13T15:12:49.311Z,7.85
2023-01-13T15:15:24.855Z,7.82
2023-01-13T15:17:52.987Z,7.57
2023-01-13T15:20:22.433Z,6.91
2023-01-13T15:22:50.099Z,6.48
2023-01-13T15:25:16.780Z,6.26
2023-01-13T15:27:44.995Z,6.14
2023-01-13T15:30:27.654Z,6.19
2023-01-13T15:32:56.086Z,6.25
2023-01-13T15:35:25.149Z,6.20
2023-01-13T15:37:52.277Z,6.21
2023-01-13T15:40:21.640Z,6.18
2023-01-13T15:43:07.531Z,6.20
2023-01-13T15:45:55.392Z,6.32
2023-01-13T15:48:24.517Z,6.35
2023-01-13T15:50:51.015Z,6.39
2023-01-13T15:53:17.929Z,6.42
2023-01-13T15:55:47.162Z,6.36
2023-01-13T15:58:14.824Z,6.46
2023-01-13T16:00:42.307Z,6.47
2023-01-13T16:03:18.394Z,6.56
2023-01-13T16:05:45.559Z,6.59
2023-01-13T16:08:20.652Z,6.56
2023-01-13T16:10:48.036Z,6.59
2023-01-13T16:13:15.887Z,6.61
2023-01-13T16:15:51.167Z,6.55
2023-01-13T16:18:24.288Z,6.66
2023-01-13T16:20:53.386Z,6.70
2023-01-13T16:23:22.385Z,6.70
2023-01-13T16:25:49.577Z,6.69
2023-01-13T16:28:28.150Z,6.58
2023-01-13T16:30:54.859Z,6.58
2023-01-13T16:33:21.961Z,6.17
2023-01-13T16:36:10.318Z,6.46
2023-01-13T16:38:34.810Z,6.47
2023-01-13T16:41:01.370Z,6.39
2023-01-13T16:43:28.044Z,6.38
2023-01-13T16:45:54.500Z,6.32
2023-01-13T16:48:22.955Z,6.36
2023-01-13T16:50:49.442Z,6.39
2023-01-13T16:53:15.902Z,6.44
2023-01-13T16:55:42.832Z,6.46
2023-01-13T16:58:20.382Z,6.50
2023-01-13T17:00:47.685Z,6.48
2023-01-13T17:03:15.926Z,6.38
2023-01-13T17:05:44.679Z,6.43
2023-01-13T17:08:18.688Z,6.30
2023-01-13T17:10:45.942Z,6.27
2023-01-13T17:13:16.450Z,6.30
2023-01-13T17:15:44.610Z,6.30
2023-01-13T17:18:13.446Z,6.34
2023-01-13T17:20:40.112Z,6.31
2023-01-13T17:23:06.497Z,6.26
2023-01-13T17:25:32.905Z,6.36
2023-01-13T17:27:59.303Z,6.34
2023-01-13T17:30:25.714Z,6.41
2023-01-13T17:32:52.094Z,6.42
2023-01-13T17:35:22.891Z,6.30
2023-01-13T17:37:49.267Z,6.32
2023-01-13T17:40:15.924Z,6.43
2023-01-13T17:42:42.304Z,6.42
2023-01-13T17:45:11.450Z,6.45
2023-01-13T17:47:38.312Z,6.43
2023-01-13T17:50:05.763Z,6.58
2023-01-13T17:52:33.995Z,6.66
2023-01-13T17:55:00.772Z,6.65
2023-01-13T17:57:27.535Z,6.65
2023-01-13T17:59:53.962Z,6.69
2023-01-13T18:02:20.491Z,6.68
2023-01-13T18:04:46.967Z,6.70
2023-01-13T18:07:13.582Z,6.71
2023-01-13T18:09:40.031Z,6.62
2023-01-13T18:12:06.465Z,6.69
2023-01-13T18:14:32.877Z,6.72
2023-01-13T18:16:59.529Z,6.69
2023-01-13T18:19:44.483Z,6.73
2023-01-13T18:22:32.376Z,6.78
2023-01-13T18:25:17.899Z,6.75
2023-01-13T18:27:44.398Z,6.82
2023-01-13T18:30:11.980Z,6.86
2023-01-13T18:32:38.360Z,6.89
2023-01-13T18:35:10.085Z,6.82
2023-01-13T18:37:42.225Z,6.84
2023-01-13T18:40:10.988Z,6.77
2023-01-13T18:42:57.170Z,6.72
2023-01-13T18:45:30.243Z,6.65
2023-01-13T18:47:59.644Z,6.62
2023-01-13T18:50:28.344Z,6.67
2023-01-13T18:52:55.034Z,6.64
2023-01-13T18:55:22.147Z,6.70
2023-01-13T18:57:48.936Z,6.69
2023-01-13T19:00:17.968Z,6.67
2023-01-13T19:02:47.116Z,6.68
2023-01-13T19:05:14.026Z,6.69
2023-01-13T19:07:40.542Z,6.69
2023-01-13T19:10:09.736Z,6.67
2023-01-13T19:12:36.526Z,6.65
2023-01-13T19:15:03.202Z,6.57
2023-01-13T19:17:34.329Z,6.73
2023-01-13T19:20:00.810Z,6.67
2023-01-13T19:22:30.986Z,6.75
2023-01-13T19:24:58.180Z,6.71
2023-01-13T19:27:25.277Z,6.69
2023-01-13T19:29:53.886Z,6.57
2023-01-13T19:32:21.894Z,6.71
2023-01-13T19:34:50.671Z,6.73
2023-01-13T19:37:18.010Z,6.70
2023-01-13T19:39:44.895Z,6.63
2023-01-13T19:42:32.302Z,6.64
2023-01-13T19:45:17.940Z,6.57
2023-01-13T19:47:45.915Z,6.62
2023-01-13T19:50:13.652Z,6.57
2023-01-13T19:52:41.059Z,6.58
2023-01-13T19:55:07.866Z,6.61
2023-01-13T19:57:34.345Z,6.52
2023-01-13T20:00:00.747Z,6.22
2023-01-13T20:02:31.587Z,6.42
2023-01-13T20:05:00.051Z,6.41
2023-01-13T20:07:29.588Z,6.39
2023-01-13T20:09:56.520Z,6.33
2023-01-13T20:12:27.429Z,6.30
2023-01-13T20:14:53.896Z,6.26
2023-01-13T20:17:22.231Z,6.27
2023-01-13T20:19:48.745Z,6.16
2023-01-13T20:22:15.282Z,6.34
2023-01-13T20:24:41.664Z,6.25
2023-01-13T20:27:08.224Z,6.27
2023-01-13T20:29:34.693Z,6.34
2023-01-13T20:32:01.369Z,6.35
2023-01-13T20:34:29.494Z,6.38
2023-01-13T20:36:56.948Z,6.48
2023-01-13T20:39:26.277Z,6.38
2023-01-13T20:42:11.981Z,6.54
2023-01-13T20:44:38.384Z,6.46
2023-01-13T20:47:05.124Z,6.41
2023-01-13T20:49:31.766Z,6.39
2023-01-13T20:51:58.448Z,6.42
2023-01-13T20:54:25.109Z,6.24
2023-01-13T20:56:51.833Z,6.38
2023-01-13T20:59:18.435Z,6.44
2023-01-13T21:01:44.994Z,6.33
2023-01-13T21:04:11.561Z,6.27
2023-01-13T21:06:38.117Z,6.26
2023-01-13T21:09:04.670Z,6.27
2023-01-13T21:11:49.702Z,6.22
2023-01-13T21:14:43.830Z,6.14
2023-01-13T21:17:30.633Z,6.11
2023-01-13T21:19:57.073Z,6.08
2023-01-13T21:22:23.795Z,6.01
2023-01-13T21:24:50.310Z,5.98
2023-01-13T21:27:17.078Z,6.04
2023-01-13T21:29:46.381Z,5.90
2023-01-13T21:32:13.098Z,5.92
2023-01-13T21:34:40.125Z,6.03
2023-01-13T21:37:06.616Z,6.10
2023-01-13T21:39:33.085Z,6.06
2023-01-13T21:42:18.290Z,6.23
2023-01-13T21:45:03.223Z,6.22
2023-01-13T21:47:48.153Z,6.31
2023-01-13T21:50:16.158Z,6.27
2023-01-13T21:52:42.867Z,6.02
2023-01-13T21:55:28.404Z,6.32
2023-01-13T21:57:57.524Z,6.35
2023-01-13T22:00:27.616Z,6.37
2023-01-13T22:02:54.361Z,6.44
2023-01-13T22:05:22.720Z,6.45
2023-01-13T22:07:50.074Z,6.48
2023-01-13T22:10:19.456Z,6.18
2023-01-13T22:12:47.052Z,6.46
2023-01-13T22:15:15.358Z,6.46
2023-01-13T22:17:42.637Z,6.39
2023-01-13T22:20:10.838Z,6.41
2023-01-13T22:22:37.345Z,6.36
2023-01-13T22:25:07.623Z,6.42
2023-01-13T22:27:40.771Z,6.38
2023-01-13T22:30:13.651Z,6.34
2023-01-13T22:32:40.597Z,6.35
2023-01-13T22:35:10.004Z,6.38
2023-01-13T22:37:36.997Z,6.40
2023-01-13T22:40:08.312Z,6.36
2023-01-13T22:42:42.090Z,6.44
2023-01-13T22:45:13.722Z,6.41
2023-01-13T22:47:40.710Z,6.36
2023-01-13T22:50:08.575Z,6.37
2023-01-13T22:52:35.795Z,6.34
2023-01-13T22:55:02.368Z,6.27
2023-01-13T22:57:46.491Z,6.28
2023-01-13T23:00:14.832Z,6.24
2023-01-13T23:02:41.273Z,6.20
2023-01-13T23:05:08.475Z,6.19
2023-01-13T23:07:36.140Z,6.31
2023-01-13T23:10:03.510Z,6.34
2023-01-13T23:12:29.942Z,6.32
2023-01-13T23:14:56.412Z,6.34
2023-01-13T23:17:22.856Z,6.24
2023-01-13T23:19:49.264Z,6.30
2023-01-13T23:22:15.752Z,6.42
2023-01-13T23:24:42.273Z,6.35
2023-01-13T23:27:08.655Z,6.36
2023-01-13T23:29:35.062Z,6.28
2023-01-13T23:32:01.590Z,6.19
2023-01-13T23:34:28.047Z,6.30
2023-01-13T23:36:54.455Z,6.26
2023-01-13T23:39:20.858Z,6.32
2023-01-13T23:41:47.269Z,6.36
2023-01-13T23:44:13.867Z,6.35
2023-01-13T23:46:40.247Z,6.31
2023-01-13T23:49:06.808Z,6.31
2023-01-13T23:51:33.457Z,6.35
2023-01-13T23:54:00.380Z,6.24
2023-01-13T23:56:29.450Z,6.40
2023-01-13T23:58:56.716Z,6.44
